Etusivu
METAR-TAF:

METAR-TAF

Lentoasemat :

Ashland, Wisconsin, Yhdysvallat

Leveyspiiri: 46-32-59N, Pituuspiiri: 090-55-06W, korkeus merenpinnasta: 251 m

Tämänhetkinen sää

Tämä raportti tehtiin 16 minuuttia sitten, kello 11.00 UTC
Tuuli 6 kn idästä
Lämpötila 8°C
Kosteus 93%
Ilmanpaine 1010 hPa
Näkyvyys: 9.7 km
Hajonneita pilviä 2800 ft:n korkeudessa
Pilvistä 4400 ft:n korkeudessa
heikkoa sadetta, utua

METAR: KASX 221100Z AUTO 09006KT 6SM -RA BR BKN028 OVC044 08/07 A2982 RMK AO2 P0001 T00780072

Aika: 06:16 (11:16 UTC)


TAF: puuttuu

Säähavainnot ja -ennusteet yli 4000 lentoasemalta (METAR- ja TAF-raportit).

Käytössä olevat sääasemat on merkitty karttaan keltaisilla ja punaisilla pisteillä.

Aseta hiiri pisteen päälle nähdäksesi sääaseman nimen.

Klikkaa sitten nähdäksesi säähavainnot ja -ennusteet.

Kartan vaihtaminen: klikkaa mustalla rastilla varustettuja vihreitä pisteitä, niin voit zoomata sisään; viivalla varustettua vihreää pistettä, niin voit zoomata ulos tai vihreitä nuolia, niin pääset viereisille kartoille.


METAR-TAF: